Amber Lagoon — V7FS4 — position and weather

sailwx.info

Track history (hours):
 
Tides and Currents Weather Stations Pressure Air Temp Water Temp Dewpoint Dewpoint Depression Visibility Wind Speed Wind Dir Waves Ship Positions

Amber Lagoon

Last reported at 2016-May-29 05:22 UTC. Time now 2016-May-30 22:15 UTC.
Position N 26°07' W 078°36'.

Length 192 m; draft 10.3 m.

Type: Cargo ship. MMSI: 538090116.

Date/timePositionNaut miles runAvg speedWind from/ knotsBaromVisibWave heightAir tempDewpointWater temp
2016-May-29 05:22N 26°07' W 078°36'1112.9
2016-May-29 04:32N 26°12' W 078°46'3511.9
2016-May-29 01:33N 26°04' W 079°24'1515.0
2016-May-29 00:33N 25°50' W 079°27'  
2016-May-25 20:04N 28°48' W 093°23'812.6
2016-May-25 19:24N 28°55' W 093°29'1112.5
2016-May-25 18:30N 29°04' W 093°37'2610.9
2016-May-25 16:10N 29°29' W 093°40'812.7
2016-May-25 15:33N 29°34' W 093°46'1110.9
2016-May-25 14:33N 29°44' W 093°52'8 6.3
2016-May-25 13:21N 29°50' W 093°57'0 0.0
2016-May-25 12:21N 29°50' W 093°57'0 0.0
2016-May-25 11:21N 29°50' W 093°57'0 0.0
2016-May-24 15:14N 29°50' W 093°57'0 0.0
2016-May-24 10:14N 29°50' W 093°57'0 0.0
2016-May-24 08:08N 29°50' W 093°57'0 0.0
2016-May-24 07:14N 29°50' W 093°57'0 0.0
2016-May-24 06:29N 29°50' W 093°57'0 0.0
2016-May-24 00:06N 29°50' W 093°57'0 0.6
2016-May-23 23:23N 29°50' W 093°58'6 6.8
2016-May-23 22:32N 29°45' W 093°53'11 9.8
2016-May-23 21:23N 29°35' W 093°48'5 5.9
2016-May-23 20:33N 29°34' W 093°42'0 0.0
2016-May-23 19:24N 29°34' W 093°42'0 0.0
2016-May-23 18:33N 29°34' W 093°42'0 0.0
2016-May-23 17:33N 29°34' W 093°42'0 0.0
2016-May-23 16:33N 29°34' W 093°42'0 0.0
2016-May-23 15:08N 29°34' W 093°42'0 0.0
2016-May-23 14:17N 29°34' W 093°42'0 0.0
2016-May-23 13:11N 29°34' W 093°42'0 0.0
2016-May-23 12:32N 29°34' W 093°42'0 0.0
2016-May-23 10:29N 29°34' W 093°42'0 0.0
2016-May-23 09:32N 29°34' W 093°42'0 0.0
2016-May-23 08:29N 29°34' W 093°42'0 0.0
2016-May-23 07:29N 29°34' W 093°42'0 0.0
2016-May-23 06:20N 29°34' W 093°42'0 0.0
2016-May-23 05:32N 29°34' W 093°42'0 0.0
2016-May-23 04:32N 29°34' W 093°42'0 0.0
2016-May-23 03:29N 29°34' W 093°42'0 0.0
2016-May-23 02:32N 29°34' W 093°42'0 0.0
2016-May-23 01:32N 29°34' W 093°42'0 0.0
2016-May-23 00:05N 29°34' W 093°42'0 0.0
2016-May-22 22:23N 29°34' W 093°42'0 0.0
2016-May-22 21:29N 29°34' W 093°42'0 0.0
2016-May-22 17:26N 29°34' W 093°42'0 0.0
2016-May-22 16:32N 29°34' W 093°42'0 0.0
2016-May-22 15:32N 29°34' W 093°42'0 0.0
2016-May-22 14:32N 29°34' W 093°42'0 0.0
2016-May-22 13:32N 29°34' W 093°42'0 0.0
2016-May-22 12:32N 29°34' W 093°42'0 0.0
2016-May-22 11:29N 29°34' W 093°42'0 0.0
2016-May-22 10:08N 29°34' W 093°42'0 0.0
2016-May-22 05:25N 29°34' W 093°42'0 0.0
2016-May-22 03:04N 29°34' W 093°42'0 0.0
2016-May-22 02:31N 29°34' W 093°42'0 0.0
2016-May-22 01:31N 29°34' W 093°42'0 0.0
2016-May-22 00:31N 29°34' W 093°42'0 0.0
2016-May-21 23:25N 29°34' W 093°42'0 0.0
2016-May-21 22:31N 29°34' W 093°42'0 0.0
2016-May-21 21:28N 29°34' W 093°42'0 0.0
2016-May-21 20:28N 29°34' W 093°42'0 0.0
2016-May-21 19:31N 29°34' W 093°42'0 0.0
2016-May-21 17:25N 29°34' W 093°42'0 0.0
2016-May-21 16:31N 29°34' W 093°42'0 0.0
2016-May-21 15:25N 29°34' W 093°42'0 0.0
2016-May-21 14:31N 29°34' W 093°42'0 0.0
2016-May-21 13:34N 29°34' W 093°42'0 0.0
2016-May-21 12:34N 29°34' W 093°42'0 0.0
2016-May-21 11:34N 29°34' W 093°42'0 0.3
2016-May-21 10:34N 29°34' W 093°42'9 8.5
2016-May-21 09:29N 29°25' W 093°39'1112.2
2016-May-21 08:34N 29°14' W 093°40'1312.8
2016-May-21 07:33N 29°02' W 093°34'1413.5
2016-May-21 06:32N 28°51' W 093°24'186 7.5
2016-May-20 05:34N 29°44' W 089°60'12 6.2
2016-May-20 03:33N 29°56' W 090°04'9 8.7
2016-May-20 02:33N 29°57' W 090°14'  
Track history (hours):
 
Tides and Currents Weather Stations Pressure Air Temp Water Temp Dewpoint Dewpoint Depression Visibility Wind Speed Wind Dir Waves Ship Positions

Amber Lagoon

Last reported at 2016-May-29 05:22 UTC. Time now 2016-May-30 22:15 UTC.
Position N 26°07' W 078°36'.

Length 192 m; draft 10.3 m.

Type: Cargo ship. MMSI: 538090116.

Date/timePositionNaut miles runAvg speedWind from/ knotsBaromVisibWave heightAir tempDewpointWater temp
2016-May-29 05:22N 26°07' W 078°36'1112.9
2016-May-29 04:32N 26°12' W 078°46'3511.9
2016-May-29 01:33N 26°04' W 079°24'1515.0
2016-May-29 00:33N 25°50' W 079°27'  
2016-May-25 20:04N 28°48' W 093°23'812.6
2016-May-25 19:24N 28°55' W 093°29'1112.5
2016-May-25 18:30N 29°04' W 093°37'2610.9
2016-May-25 16:10N 29°29' W 093°40'812.7
2016-May-25 15:33N 29°34' W 093°46'1110.9
2016-May-25 14:33N 29°44' W 093°52'8 6.3
2016-May-25 13:21N 29°50' W 093°57'0 0.0
2016-May-25 12:21N 29°50' W 093°57'0 0.0
2016-May-25 11:21N 29°50' W 093°57'0 0.0
2016-May-24 15:14N 29°50' W 093°57'0 0.0
2016-May-24 10:14N 29°50' W 093°57'0 0.0
2016-May-24 08:08N 29°50' W 093°57'0 0.0
2016-May-24 07:14N 29°50' W 093°57'0 0.0
2016-May-24 06:29N 29°50' W 093°57'0 0.0
2016-May-24 00:06N 29°50' W 093°57'0 0.6
2016-May-23 23:23N 29°50' W 093°58'6 6.8
2016-May-23 22:32N 29°45' W 093°53'11 9.8
2016-May-23 21:23N 29°35' W 093°48'5 5.9
2016-May-23 20:33N 29°34' W 093°42'0 0.0
2016-May-23 19:24N 29°34' W 093°42'0 0.0
2016-May-23 18:33N 29°34' W 093°42'0 0.0
2016-May-23 17:33N 29°34' W 093°42'0 0.0
2016-May-23 16:33N 29°34' W 093°42'0 0.0
2016-May-23 15:08N 29°34' W 093°42'0 0.0
2016-May-23 14:17N 29°34' W 093°42'0 0.0
2016-May-23 13:11N 29°34' W 093°42'0 0.0
2016-May-23 12:32N 29°34' W 093°42'0 0.0
2016-May-23 10:29N 29°34' W 093°42'0 0.0
2016-May-23 09:32N 29°34' W 093°42'0 0.0
2016-May-23 08:29N 29°34' W 093°42'0 0.0
2016-May-23 07:29N 29°34' W 093°42'0 0.0
2016-May-23 06:20N 29°34' W 093°42'0 0.0
2016-May-23 05:32N 29°34' W 093°42'0 0.0
2016-May-23 04:32N 29°34' W 093°42'0 0.0
2016-May-23 03:29N 29°34' W 093°42'0 0.0
2016-May-23 02:32N 29°34' W 093°42'0 0.0
2016-May-23 01:32N 29°34' W 093°42'0 0.0
2016-May-23 00:05N 29°34' W 093°42'0 0.0
2016-May-22 22:23N 29°34' W 093°42'0 0.0
2016-May-22 21:29N 29°34' W 093°42'0 0.0
2016-May-22 17:26N 29°34' W 093°42'0 0.0
2016-May-22 16:32N 29°34' W 093°42'0 0.0
2016-May-22 15:32N 29°34' W 093°42'0 0.0
2016-May-22 14:32N 29°34' W 093°42'0 0.0
2016-May-22 13:32N 29°34' W 093°42'0 0.0
2016-May-22 12:32N 29°34' W 093°42'0 0.0
2016-May-22 11:29N 29°34' W 093°42'0 0.0
2016-May-22 10:08N 29°34' W 093°42'0 0.0
2016-May-22 05:25N 29°34' W 093°42'0 0.0
2016-May-22 03:04N 29°34' W 093°42'0 0.0
2016-May-22 02:31N 29°34' W 093°42'0 0.0
2016-May-22 01:31N 29°34' W 093°42'0 0.0
2016-May-22 00:31N 29°34' W 093°42'0 0.0
2016-May-21 23:25N 29°34' W 093°42'0 0.0
2016-May-21 22:31N 29°34' W 093°42'0 0.0
2016-May-21 21:28N 29°34' W 093°42'0 0.0
2016-May-21 20:28N 29°34' W 093°42'0 0.0
2016-May-21 19:31N 29°34' W 093°42'0 0.0
2016-May-21 17:25N 29°34' W 093°42'0 0.0
2016-May-21 16:31N 29°34' W 093°42'0 0.0
2016-May-21 15:25N 29°34' W 093°42'0 0.0
2016-May-21 14:31N 29°34' W 093°42'0 0.0
2016-May-21 13:34N 29°34' W 093°42'0 0.0
2016-May-21 12:34N 29°34' W 093°42'0 0.0
2016-May-21 11:34N 29°34' W 093°42'0 0.3
2016-May-21 10:34N 29°34' W 093°42'9 8.5
2016-May-21 09:29N 29°25' W 093°39'1112.2
2016-May-21 08:34N 29°14' W 093°40'1312.8
2016-May-21 07:33N 29°02' W 093°34'1413.5
2016-May-21 06:32N 28°51' W 093°24'186 7.5
2016-May-20 05:34N 29°44' W 089°60'12 6.2
2016-May-20 03:33N 29°56' W 090°04'9 8.7
2016-May-20 02:33N 29°57' W 090°14'  

Dump ship's entire track history